createdAt,value
2017-06-23T00:02:04.786Z,13.90
2017-06-23T00:04:32.324Z,14.37
2017-06-23T00:06:59.885Z,14.53
2017-06-23T00:09:27.421Z,15.30
2017-06-23T00:11:54.950Z,14.47
2017-06-23T00:14:23.261Z,13.60
2017-06-23T00:16:50.791Z,14.60
2017-06-23T00:19:19.099Z,14.60
2017-06-23T00:21:46.640Z,15.17
2017-06-23T00:24:14.211Z,14.23
2017-06-23T00:26:41.742Z,14.17
2017-06-23T00:29:10.038Z,14.30
2017-06-23T00:31:37.587Z,16.13
2017-06-23T00:34:05.136Z,14.73
2017-06-23T00:36:33.452Z,16.07
2017-06-23T00:39:00.990Z,15.30
2017-06-23T00:41:28.538Z,15.10
2017-06-23T00:43:56.070Z,14.60
2017-06-23T00:46:23.689Z,14.33
2017-06-23T00:48:51.235Z,15.23
2017-06-23T00:51:18.912Z,15.10
2017-06-23T00:53:46.462Z,14.50
2017-06-23T00:56:13.994Z,14.83
2017-06-23T00:58:42.408Z,14.03
2017-06-23T01:01:09.939Z,15.63
2017-06-23T01:03:37.466Z,14.53
2017-06-23T01:06:05.025Z,15.87
2017-06-23T01:08:32.551Z,13.40
2017-06-23T01:11:00.102Z,14.27
2017-06-23T01:13:27.629Z,14.83
2017-06-23T01:15:55.190Z,15.60
2017-06-23T01:18:22.722Z,14.10
2017-06-23T01:20:50.258Z,15.13
2017-06-23T01:23:17.817Z,14.47
2017-06-23T01:25:45.347Z,15.07
2017-06-23T01:28:12.898Z,14.97
2017-06-23T01:30:40.433Z,14.47
2017-06-23T01:33:09.755Z,14.53
2017-06-23T01:35:37.288Z,15.60
2017-06-23T01:38:05.688Z,14.13
2017-06-23T01:40:33.245Z,14.63
2017-06-23T01:43:00.799Z,15.60
2017-06-23T01:45:28.331Z,14.20
2017-06-23T01:47:55.901Z,14.10
2017-06-23T01:50:24.198Z,14.90
2017-06-23T01:52:51.733Z,14.50
2017-06-23T01:55:20.049Z,14.43
2017-06-23T01:57:47.582Z,14.13
2017-06-23T02:00:15.902Z,15.70
2017-06-23T02:02:43.442Z,15.00
2017-06-23T02:05:10.998Z,13.83
2017-06-23T02:07:38.541Z,13.83
2017-06-23T02:10:06.090Z,14.73
2017-06-23T02:12:34.390Z,14.63
2017-06-23T02:15:01.966Z,15.60
2017-06-23T02:17:29.499Z,14.57
2017-06-23T02:19:57.043Z,14.00
2017-06-23T02:22:25.359Z,14.63
2017-06-23T02:24:52.889Z,14.13
2017-06-23T02:27:20.438Z,15.10
2017-06-23T02:29:48.742Z,14.50
2017-06-23T02:32:16.338Z,14.60
2017-06-23T02:34:43.889Z,14.60
2017-06-23T02:37:11.447Z,15.30
2017-06-23T02:39:38.973Z,14.30
2017-06-23T02:42:06.511Z,14.77
2017-06-23T02:44:34.976Z,14.23
2017-06-23T02:47:02.507Z,14.30
2017-06-23T02:49:30.060Z,15.60
2017-06-23T02:51:57.594Z,14.50
2017-06-23T02:54:25.147Z,14.07
2017-06-23T02:56:52.678Z,14.30
2017-06-23T02:59:21.008Z,13.67
2017-06-23T03:01:48.534Z,15.00
2017-06-23T03:04:16.079Z,14.20
2017-06-23T03:06:44.391Z,14.93
2017-06-23T03:09:11.957Z,14.07
2017-06-23T03:11:39.535Z,14.17
2017-06-23T03:14:07.058Z,14.37
2017-06-23T03:16:34.610Z,15.37
2017-06-23T03:19:02.151Z,13.60
2017-06-23T03:21:30.468Z,14.97
2017-06-23T03:23:57.997Z,15.43
2017-06-23T03:26:26.314Z,14.83
2017-06-23T03:28:53.845Z,15.53
2017-06-23T03:31:21.406Z,16.57
2017-06-23T03:33:48.937Z,15.47
2017-06-23T03:36:17.278Z,15.70
2017-06-23T03:38:44.806Z,14.77
2017-06-23T03:41:12.342Z,14.27
2017-06-23T03:43:40.727Z,14.83
2017-06-23T03:46:08.324Z,14.97
2017-06-23T03:48:35.879Z,14.50
2017-06-23T03:51:03.427Z,15.00
2017-06-23T03:53:30.973Z,14.70
2017-06-23T03:55:58.501Z,14.10
2017-06-23T03:58:26.847Z,14.27
2017-06-23T04:00:54.391Z,14.17
2017-06-23T04:03:21.925Z,14.30
2017-06-23T04:05:49.482Z,14.30
2017-06-23T04:08:17.022Z,14.33
2017-06-23T04:10:44.578Z,13.70
2017-06-23T04:13:12.897Z,13.50
2017-06-23T04:15:40.461Z,13.73
2017-06-23T04:18:07.991Z,13.07
2017-06-23T04:20:35.546Z,14.33
2017-06-23T04:23:03.085Z,13.93
2017-06-23T04:25:30.609Z,13.90
2017-06-23T04:27:58.174Z,13.40
2017-06-23T04:30:25.706Z,13.10
2017-06-23T04:32:53.270Z,13.07
2017-06-23T04:35:20.806Z,12.80
2017-06-23T04:37:48.392Z,11.80
2017-06-23T04:40:15.927Z,11.80
2017-06-23T04:42:43.481Z,12.47
2017-06-23T04:45:11.012Z,11.63
2017-06-23T04:47:38.541Z,11.80
2017-06-23T04:50:06.101Z,11.10
2017-06-23T04:52:33.630Z,10.90
2017-06-23T04:55:01.186Z,10.73
2017-06-23T04:57:28.751Z,10.83
2017-06-23T04:59:56.299Z,9.93
2017-06-23T05:02:23.827Z,11.00
2017-06-23T05:04:51.382Z,10.70
2017-06-23T05:07:18.906Z,10.30
2017-06-23T05:09:46.462Z,10.40
2017-06-23T05:12:14.927Z,10.73
2017-06-23T05:14:42.445Z,11.33
2017-06-23T05:17:09.989Z,11.10
2017-06-23T05:19:37.522Z,11.47
2017-06-23T05:22:05.078Z,11.60
2017-06-23T05:24:32.605Z,10.80
2017-06-23T05:27:00.149Z,11.83
2017-06-23T05:29:28.486Z,10.97
2017-06-23T05:31:56.026Z,11.10
2017-06-23T05:34:23.583Z,12.73
2017-06-23T05:36:51.106Z,11.87
2017-06-23T05:39:19.406Z,11.77
2017-06-23T05:41:46.952Z,10.87
2017-06-23T05:44:14.487Z,11.00
2017-06-23T05:46:42.802Z,11.23
2017-06-23T05:49:10.330Z,12.40
2017-06-23T05:51:38.650Z,11.00
2017-06-23T05:54:06.182Z,11.87
2017-06-23T05:56:33.746Z,11.53
2017-06-23T05:59:01.279Z,11.37
2017-06-23T06:01:29.582Z,12.37
2017-06-23T06:03:57.123Z,12.00
2017-06-23T06:06:26.375Z,10.73
2017-06-23T06:08:54.289Z,11.97
2017-06-23T06:11:23.187Z,11.63
2017-06-23T06:13:51.502Z,12.33
2017-06-23T06:16:19.055Z,12.60
2017-06-23T06:18:46.617Z,11.33
2017-06-23T06:21:14.149Z,11.97
2017-06-23T06:23:41.686Z,12.30
2017-06-23T06:26:10.026Z,12.97
2017-06-23T06:28:37.552Z,11.73
2017-06-23T06:31:05.093Z,12.27
2017-06-23T06:33:33.388Z,11.23
2017-06-23T06:36:01.794Z,11.70
2017-06-23T06:38:29.319Z,11.67
2017-06-23T06:40:56.903Z,11.40
2017-06-23T06:43:24.479Z,10.90
2017-06-23T06:45:52.007Z,11.90
2017-06-23T06:48:19.550Z,12.97
2017-06-23T06:50:47.076Z,11.83
2017-06-23T06:53:14.638Z,11.77
2017-06-23T06:55:42.166Z,11.57
2017-06-23T06:58:09.710Z,11.80
2017-06-23T07:00:37.234Z,12.03
2017-06-23T07:03:05.542Z,12.20
2017-06-23T07:05:33.071Z,12.50
2017-06-23T07:08:00.648Z,11.80
2017-06-23T07:10:28.194Z,12.33
2017-06-23T07:12:56.490Z,12.50
2017-06-23T07:15:24.038Z,13.20
2017-06-23T07:17:51.571Z,12.40
2017-06-23T07:20:19.895Z,12.90
2017-06-23T07:22:47.436Z,12.90
2017-06-23T07:25:14.999Z,12.93
2017-06-23T07:27:42.521Z,12.10
2017-06-23T07:30:10.070Z,11.80
2017-06-23T07:32:37.602Z,12.57
2017-06-23T07:35:05.955Z,12.93
2017-06-23T07:37:33.483Z,13.13
2017-06-23T07:40:01.018Z,13.27
2017-06-23T07:42:28.568Z,13.20
2017-06-23T07:44:56.102Z,12.03
2017-06-23T07:47:23.653Z,14.23
2017-06-23T07:49:51.185Z,12.90
2017-06-23T07:52:18.727Z,12.50
2017-06-23T07:54:46.273Z,12.40
2017-06-23T07:57:13.823Z,12.23
2017-06-23T07:59:41.369Z,13.20
2017-06-23T08:02:10.711Z,13.77
2017-06-23T08:04:38.495Z,13.03
2017-06-23T08:07:06.092Z,12.60
2017-06-23T08:09:34.408Z,12.10
2017-06-23T08:12:01.975Z,11.93
2017-06-23T08:14:29.555Z,12.10
2017-06-23T08:16:57.156Z,12.63
2017-06-23T08:19:24.729Z,11.90
2017-06-23T08:21:53.063Z,12.77
2017-06-23T08:24:20.666Z,12.80
2017-06-23T08:26:48.230Z,12.67
2017-06-23T08:29:15.777Z,12.17
2017-06-23T08:31:43.401Z,12.27
2017-06-23T08:34:10.965Z,12.23
2017-06-23T08:36:38.565Z,11.80
2017-06-23T08:39:06.124Z,12.23
2017-06-23T08:41:33.699Z,11.13
2017-06-23T08:44:01.351Z,11.27
2017-06-23T08:46:28.901Z,11.90
2017-06-23T08:48:56.451Z,12.60
2017-06-23T08:51:24.786Z,11.90
2017-06-23T08:53:52.358Z,11.70
2017-06-23T08:56:19.952Z,13.67
2017-06-23T08:58:48.306Z,11.70
2017-06-23T09:01:15.892Z,11.73
2017-06-23T09:03:43.457Z,11.83
2017-06-23T09:06:11.049Z,12.77
2017-06-23T09:08:38.653Z,13.17
2017-06-23T09:11:06.282Z,11.30
2017-06-23T09:13:34.386Z,12.60
2017-06-23T09:16:02.016Z,12.40
2017-06-23T09:18:29.611Z,13.40
2017-06-23T09:20:57.167Z,12.00
2017-06-23T09:23:24.758Z,12.73
2017-06-23T09:25:52.367Z,11.37
2017-06-23T09:28:19.938Z,11.57
2017-06-23T09:30:49.514Z,11.80
2017-06-23T09:33:17.097Z,12.10
2017-06-23T09:35:44.642Z,11.07
2017-06-23T09:38:12.210Z,11.10
2017-06-23T09:40:40.335Z,11.43
2017-06-23T09:43:08.776Z,11.60
2017-06-23T09:45:37.279Z,10.83
2017-06-23T09:48:04.870Z,12.27
2017-06-23T09:50:32.499Z,11.77
2017-06-23T09:53:00.118Z,11.37
2017-06-23T09:55:27.676Z,12.00
2017-06-23T09:57:55.255Z,10.80
2017-06-23T10:00:22.833Z,11.53
2017-06-23T10:02:50.432Z,10.03
2017-06-23T10:05:18.017Z,10.67
2017-06-23T10:07:45.604Z,11.63
2017-06-23T10:10:13.175Z,9.70
2017-06-23T10:12:40.744Z,10.47
2017-06-23T10:15:08.379Z,10.37
2017-06-23T10:17:35.965Z,10.20
2017-06-23T10:20:03.583Z,9.57
2017-06-23T10:22:31.173Z,9.23
2017-06-23T10:24:58.730Z,10.40
2017-06-23T10:27:27.091Z,9.63
2017-06-23T10:29:54.650Z,10.50
2017-06-23T10:32:22.225Z,10.33
2017-06-23T10:34:49.820Z,9.10
2017-06-23T10:37:18.169Z,8.90
2017-06-23T10:39:46.143Z,10.00
2017-06-23T10:42:13.746Z,8.50
2017-06-23T10:44:41.574Z,9.77
2017-06-23T10:47:09.605Z,9.73
2017-06-23T10:49:37.140Z,9.13
2017-06-23T10:52:04.711Z,9.43
2017-06-23T10:54:32.311Z,9.60
2017-06-23T10:56:59.875Z,10.03
2017-06-23T10:59:27.494Z,10.13
2017-06-23T11:01:55.827Z,10.57
2017-06-23T11:04:23.882Z,9.00
2017-06-23T11:06:52.203Z,10.20
2017-06-23T11:09:19.791Z,8.90
2017-06-23T11:11:47.363Z,9.80
2017-06-23T11:14:14.923Z,9.57
2017-06-23T11:16:42.482Z,8.43
2017-06-23T11:19:10.034Z,10.77
2017-06-23T11:21:37.603Z,10.40
2017-06-23T11:24:05.181Z,10.17
2017-06-23T11:26:32.749Z,10.50
2017-06-23T11:29:00.375Z,10.90
2017-06-23T11:31:28.006Z,9.83
2017-06-23T11:33:56.340Z,9.70
2017-06-23T11:36:23.958Z,9.73
2017-06-23T11:38:51.543Z,9.67
2017-06-23T11:41:19.120Z,10.70
2017-06-23T11:43:46.695Z,9.60
2017-06-23T11:46:14.265Z,9.60
2017-06-23T11:48:42.775Z,9.27
2017-06-23T11:51:10.419Z,9.40
2017-06-23T11:53:38.046Z,9.53
2017-06-23T11:56:06.471Z,9.63
2017-06-23T11:58:34.117Z,9.40
2017-06-23T12:01:01.721Z,9.63
2017-06-23T12:03:29.290Z,9.37
2017-06-23T12:05:56.954Z,8.73
2017-06-23T12:08:24.680Z,9.33
2017-06-23T12:10:52.287Z,8.80
2017-06-23T12:13:19.852Z,9.50
2017-06-23T12:15:47.483Z,7.93
2017-06-23T12:18:15.033Z,9.10
2017-06-23T12:20:43.483Z,9.50
2017-06-23T12:23:12.858Z,8.23
2017-06-23T12:25:40.471Z,9.07
2017-06-23T12:28:08.805Z,7.60
2017-06-23T12:30:36.448Z,8.07
2017-06-23T12:33:04.819Z,7.97
2017-06-23T12:35:32.387Z,7.70
2017-06-23T12:38:00.010Z,8.10
2017-06-23T12:40:27.597Z,7.80
2017-06-23T12:42:55.188Z,8.37
2017-06-23T12:45:22.791Z,8.30
2017-06-23T12:47:50.401Z,7.70
2017-06-23T12:50:18.833Z,7.07
2017-06-23T12:52:46.429Z,7.80
2017-06-23T12:55:14.074Z,7.50
2017-06-23T12:57:41.662Z,6.43
2017-06-23T13:00:09.258Z,5.93
2017-06-23T13:02:36.839Z,6.33
2017-06-23T13:05:04.481Z,6.03
2017-06-23T13:07:32.101Z,7.23
2017-06-23T13:09:59.722Z,5.67
2017-06-23T13:12:27.355Z,6.00
2017-06-23T13:14:54.939Z,6.80
2017-06-23T13:17:23.292Z,5.90
2017-06-23T13:19:50.880Z,5.90
2017-06-23T13:22:19.282Z,5.53
2017-06-23T13:24:47.691Z,6.00
2017-06-23T13:27:15.289Z,4.77
2017-06-23T13:29:42.859Z,5.77
2017-06-23T13:32:10.419Z,4.80
2017-06-23T13:34:38.026Z,5.10
2017-06-23T13:37:05.567Z,3.70
2017-06-23T13:39:33.128Z,4.80
2017-06-23T13:42:00.693Z,4.60
2017-06-23T13:44:28.287Z,4.40
2017-06-23T13:46:56.596Z,4.40
2017-06-23T13:49:24.195Z,4.17
2017-06-23T13:51:51.735Z,5.30
2017-06-23T13:54:19.280Z,5.13
2017-06-23T13:56:46.868Z,4.60
2017-06-23T13:59:14.420Z,4.90
2017-06-23T14:01:42.028Z,4.00
2017-06-23T14:04:09.598Z,4.40
2017-06-23T14:06:37.188Z,4.53
2017-06-23T14:09:04.787Z,5.10
2017-06-23T14:11:32.359Z,4.07
2017-06-23T14:13:59.909Z,4.60
2017-06-23T14:16:27.509Z,4.30
2017-06-23T14:18:55.061Z,4.60
2017-06-23T14:21:22.600Z,4.60
2017-06-23T14:23:50.189Z,5.50
2017-06-23T14:26:17.714Z,5.13
2017-06-23T14:28:45.298Z,4.40
2017-06-23T14:31:12.845Z,5.20
2017-06-23T14:33:40.410Z,5.40
2017-06-23T14:36:08.738Z,4.90
2017-06-23T14:38:36.309Z,5.13
2017-06-23T14:41:03.866Z,4.97
2017-06-23T14:43:31.443Z,5.50
2017-06-23T14:45:58.991Z,4.67
2017-06-23T14:48:26.546Z,6.20
2017-06-23T14:50:54.122Z,5.17
2017-06-23T14:53:21.689Z,4.70
2017-06-23T14:55:49.278Z,4.97
2017-06-23T14:58:16.800Z,4.97
2017-06-23T15:00:44.391Z,4.43
2017-06-23T15:03:11.919Z,4.43
2017-06-23T15:05:39.479Z,4.53
2017-06-23T15:08:07.008Z,4.60
2017-06-23T15:10:35.293Z,4.70
2017-06-23T15:13:03.603Z,5.03
2017-06-23T15:15:31.145Z,4.50
2017-06-23T15:17:58.686Z,4.83
2017-06-23T15:20:26.993Z,4.67
2017-06-23T15:22:54.537Z,4.47
2017-06-23T15:25:22.060Z,4.50
2017-06-23T15:27:49.681Z,4.70
2017-06-23T15:30:17.198Z,4.20
2017-06-23T15:32:45.488Z,4.87
2017-06-23T15:35:13.040Z,4.37
2017-06-23T15:37:41.337Z,5.10
2017-06-23T15:40:08.886Z,5.13
2017-06-23T15:42:36.421Z,5.03
2017-06-23T15:45:04.743Z,5.00
2017-06-23T15:47:32.262Z,5.07
2017-06-23T15:50:00.683Z,4.00
2017-06-23T15:52:28.207Z,4.70
2017-06-23T15:54:56.542Z,4.10
2017-06-23T15:57:24.077Z,4.40
2017-06-23T15:59:51.594Z,4.80
2017-06-23T16:02:19.910Z,4.37
2017-06-23T16:04:47.433Z,4.83
2017-06-23T16:07:14.985Z,4.90
2017-06-23T16:09:42.518Z,4.90
2017-06-23T16:12:10.057Z,4.80
2017-06-23T16:14:37.590Z,4.70
2017-06-23T16:17:05.139Z,4.80
2017-06-23T16:19:32.675Z,4.67
2017-06-23T16:22:01.890Z,4.60
2017-06-23T16:24:29.423Z,4.93
2017-06-23T16:26:56.983Z,5.40
2017-06-23T16:29:24.506Z,4.37
2017-06-23T16:31:52.030Z,4.40
2017-06-23T16:34:19.642Z,4.67
2017-06-23T16:36:47.172Z,4.10
2017-06-23T16:39:14.714Z,4.33
2017-06-23T16:41:42.238Z,4.77
2017-06-23T16:44:09.802Z,4.60
2017-06-23T16:46:38.101Z,4.73
2017-06-23T16:49:05.645Z,4.80
2017-06-23T16:51:33.938Z,4.33
2017-06-23T16:54:01.502Z,5.33
2017-06-23T16:56:29.031Z,5.37
2017-06-23T16:58:57.325Z,4.97
2017-06-23T17:01:25.643Z,5.00
2017-06-23T17:03:53.186Z,4.93
2017-06-23T17:06:20.751Z,4.70
2017-06-23T17:08:48.325Z,5.30
2017-06-23T17:11:15.863Z,5.53
2017-06-23T17:13:43.387Z,5.07
2017-06-23T17:16:11.710Z,5.20
2017-06-23T17:18:39.234Z,5.37
2017-06-23T17:21:06.757Z,5.40
2017-06-23T17:23:35.130Z,4.67
2017-06-23T17:26:02.670Z,5.37
2017-06-23T17:28:30.232Z,5.03
2017-06-23T17:30:57.758Z,5.60
2017-06-23T17:33:25.310Z,5.10
2017-06-23T17:35:52.840Z,5.60
2017-06-23T17:38:20.406Z,5.73
2017-06-23T17:40:49.045Z,5.30
2017-06-23T17:43:16.567Z,5.50
2017-06-23T17:45:44.111Z,5.07
2017-06-23T17:48:12.407Z,4.93
2017-06-23T17:50:39.958Z,5.33
2017-06-23T17:53:07.490Z,5.30
2017-06-23T17:55:35.062Z,5.07
2017-06-23T17:58:03.356Z,5.70
2017-06-23T18:00:30.918Z,4.90
2017-06-23T18:02:58.453Z,5.00
2017-06-23T18:05:26.746Z,5.60
2017-06-23T18:07:54.295Z,4.97
2017-06-23T18:10:22.584Z,5.03
2017-06-23T18:12:50.132Z,5.03
2017-06-23T18:15:17.650Z,5.80
2017-06-23T18:17:45.198Z,5.00
2017-06-23T18:20:12.721Z,5.33
2017-06-23T18:22:40.266Z,5.60
2017-06-23T18:25:07.797Z,5.60
2017-06-23T18:27:35.351Z,6.40
2017-06-23T18:30:02.982Z,5.83
2017-06-23T18:32:30.522Z,6.43
2017-06-23T18:34:58.098Z,6.10
2017-06-23T18:37:25.636Z,6.67
2017-06-23T18:39:53.198Z,6.10
2017-06-23T18:42:20.721Z,5.80
2017-06-23T18:44:49.053Z,6.00
2017-06-23T18:47:16.587Z,7.43
2017-06-23T18:49:44.138Z,7.20
2017-06-23T18:52:12.444Z,6.33
2017-06-23T18:54:40.063Z,6.37
2017-06-23T18:57:07.682Z,6.30
2017-06-23T18:59:35.226Z,6.00
2017-06-23T19:02:02.766Z,5.90
2017-06-23T19:04:30.336Z,6.40
2017-06-23T19:06:57.935Z,6.70
2017-06-23T19:09:25.457Z,6.63
2017-06-23T19:11:53.043Z,6.50
2017-06-23T19:14:20.582Z,5.80
2017-06-23T19:16:48.158Z,6.23
2017-06-23T19:19:15.730Z,6.37
2017-06-23T19:21:44.103Z,6.90
2017-06-23T19:24:11.667Z,7.73
2017-06-23T19:26:39.202Z,7.20
2017-06-23T19:29:06.743Z,7.57
2017-06-23T19:31:34.286Z,8.20
2017-06-23T19:34:01.846Z,7.70
2017-06-23T19:36:29.381Z,7.97
2017-06-23T19:38:57.677Z,7.00
2017-06-23T19:41:25.226Z,8.20
2017-06-23T19:43:53.547Z,7.23
2017-06-23T19:46:21.102Z,7.23
2017-06-23T19:48:48.754Z,8.30
2017-06-23T19:51:16.322Z,7.80
2017-06-23T19:53:43.849Z,7.40
2017-06-23T19:56:11.383Z,7.63
2017-06-23T19:58:38.930Z,7.73
2017-06-23T20:01:06.451Z,6.87
2017-06-23T20:03:34.005Z,6.40
2017-06-23T20:06:01.528Z,6.33
2017-06-23T20:08:29.075Z,6.83
2017-06-23T20:10:57.722Z,7.97
2017-06-23T20:13:25.265Z,7.07
2017-06-23T20:15:52.787Z,7.67
2017-06-23T20:18:21.122Z,6.47
2017-06-23T20:20:48.646Z,7.20
2017-06-23T20:23:16.174Z,6.67
2017-06-23T20:25:44.487Z,7.40
2017-06-23T20:28:12.026Z,7.43
2017-06-23T20:30:40.334Z,6.70
2017-06-23T20:33:07.899Z,6.23
2017-06-23T20:35:35.458Z,6.73
2017-06-23T20:38:03.007Z,7.17
2017-06-23T20:40:30.549Z,6.20
2017-06-23T20:42:58.083Z,7.53
2017-06-23T20:45:25.632Z,7.83
2017-06-23T20:47:53.155Z,6.53
2017-06-23T20:50:20.677Z,7.07
2017-06-23T20:52:48.991Z,7.80
2017-06-23T20:55:16.519Z,6.17
2017-06-23T20:57:44.066Z,7.10
2017-06-23T21:00:11.586Z,7.03
2017-06-23T21:02:39.135Z,6.30
2017-06-23T21:05:06.665Z,6.77
2017-06-23T21:07:34.210Z,7.30
2017-06-23T21:10:01.734Z,7.13
2017-06-23T21:12:29.282Z,6.93
2017-06-23T21:14:56.810Z,6.43
2017-06-23T21:17:24.359Z,6.37
2017-06-23T21:19:51.905Z,6.83
2017-06-23T21:22:19.439Z,6.73
2017-06-23T21:24:47.755Z,6.70
2017-06-23T21:27:15.279Z,7.90
2017-06-23T21:29:43.597Z,6.13
2017-06-23T21:32:11.119Z,6.87
2017-06-23T21:34:38.697Z,6.90
2017-06-23T21:37:06.228Z,7.00
2017-06-23T21:39:34.558Z,6.60
2017-06-23T21:42:02.095Z,6.83
2017-06-23T21:44:29.618Z,6.93
2017-06-23T21:46:57.178Z,6.87
2017-06-23T21:49:24.709Z,6.57
2017-06-23T21:51:52.265Z,6.60
2017-06-23T21:54:19.829Z,6.70
2017-06-23T21:56:47.382Z,6.90
2017-06-23T21:59:14.906Z,7.60
2017-06-23T22:01:42.438Z,6.33
2017-06-23T22:04:10.765Z,7.00
2017-06-23T22:06:38.286Z,6.43
2017-06-23T22:09:05.845Z,6.57
2017-06-23T22:11:34.153Z,6.00
2017-06-23T22:14:01.698Z,6.17
2017-06-23T22:16:29.232Z,7.50
2017-06-23T22:18:57.552Z,6.80
2017-06-23T22:21:25.076Z,6.80
2017-06-23T22:23:52.626Z,5.90
2017-06-23T22:26:20.929Z,7.00
2017-06-23T22:28:48.470Z,6.73
2017-06-23T22:31:16.028Z,7.30
2017-06-23T22:33:44.341Z,6.37
2017-06-23T22:36:11.881Z,6.50
2017-06-23T22:38:39.452Z,6.83
2017-06-23T22:41:07.029Z,7.50
2017-06-23T22:43:34.714Z,7.17
2017-06-23T22:46:06.438Z,6.67
2017-06-23T22:48:33.963Z,7.33
2017-06-23T22:51:01.556Z,7.30
2017-06-23T22:53:29.114Z,6.80
2017-06-23T22:55:56.700Z,7.37
2017-06-23T22:58:24.332Z,7.30
2017-06-23T23:00:51.861Z,7.30
2017-06-23T23:03:19.401Z,7.43
2017-06-23T23:05:47.699Z,6.00
2017-06-23T23:08:15.271Z,7.03
2017-06-23T23:10:42.798Z,6.90
2017-06-23T23:13:11.091Z,7.63
2017-06-23T23:15:38.642Z,7.07
2017-06-23T23:18:06.939Z,6.90
2017-06-23T23:20:34.492Z,6.93
2017-06-23T23:23:02.028Z,7.50
2017-06-23T23:25:30.342Z,6.93
2017-06-23T23:27:57.870Z,8.20
2017-06-23T23:30:26.181Z,7.50
2017-06-23T23:32:53.698Z,7.30
2017-06-23T23:35:21.988Z,6.20
2017-06-23T23:37:49.556Z,5.80
2017-06-23T23:40:17.107Z,6.60
2017-06-23T23:42:44.714Z,6.40
2017-06-23T23:45:12.246Z,6.30
2017-06-23T23:47:39.815Z,5.85
2017-06-23T23:50:07.339Z,6.40
2017-06-23T23:52:34.907Z,5.73
2017-06-23T23:55:02.446Z,5.80
2017-06-23T23:57:30.753Z,5.60
2017-06-23T23:59:58.306Z,4.70
